sensor_id;sensor_type;location;lat;lon;timestamp;pressure;altitude;pressure_sealevel;temperature;humidity
56894;BME280;43392;50.078;13.704;2023-04-20T00:00:15;97138.06;;;2.36;87.58
56894;BME280;43392;50.078;13.704;2023-04-20T00:02:42;97137.09;;;2.31;87.68
56894;BME280;43392;50.078;13.704;2023-04-20T00:05:09;97131.00;;;2.30;88.04
56894;BME280;43392;50.078;13.704;2023-04-20T00:07:38;97129.59;;;2.28;88.09
56894;BME280;43392;50.078;13.704;2023-04-20T00:10:07;97124.53;;;2.26;88.23
56894;BME280;43392;50.078;13.704;2023-04-20T00:12:34;97124.53;;;2.26;88.06
56894;BME280;43392;50.078;13.704;2023-04-20T00:15:01;97116.44;;;2.21;88.37
56894;BME280;43392;50.078;13.704;2023-04-20T00:17:27;97126.66;;;2.18;88.33
56894;BME280;43392;50.078;13.704;2023-04-20T00:19:55;97118.34;;;2.14;88.61
56894;BME280;43392;50.078;13.704;2023-04-20T00:22:21;97123.06;;;2.12;88.47
56894;BME280;43392;50.078;13.704;2023-04-20T00:24:50;97115.53;;;2.09;88.33
56894;BME280;43392;50.078;13.704;2023-04-20T00:27:17;97111.50;;;2.07;88.80
56894;BME280;43392;50.078;13.704;2023-04-20T00:29:44;97111.06;;;2.10;89.32
56894;BME280;43392;50.078;13.704;2023-04-20T00:32:10;97108.81;;;2.13;89.34
56894;BME280;43392;50.078;13.704;2023-04-20T00:34:37;97099.09;;;2.07;89.33
56894;BME280;43392;50.078;13.704;2023-04-20T00:37:03;97111.50;;;2.07;89.14
56894;BME280;43392;50.078;13.704;2023-04-20T00:39:30;97101.97;;;2.06;89.24
56894;BME280;43392;50.078;13.704;2023-04-20T00:42:04;97109.50;;;2.02;88.96
56894;BME280;43392;50.078;13.704;2023-04-20T00:44:30;97106.13;;;1.95;88.65
56894;BME280;43392;50.078;13.704;2023-04-20T00:46:57;97108.38;;;1.91;88.95
56894;BME280;43392;50.078;13.704;2023-04-20T00:49:25;97111.03;;;1.91;89.08
56894;BME280;43392;50.078;13.704;2023-04-20T00:51:55;97101.47;;;1.90;89.15
56894;BME280;43392;50.078;13.704;2023-04-20T00:54:22;97098.84;;;1.90;89.41
56894;BME280;43392;50.078;13.704;2023-04-20T00:56:49;97100.66;;;1.90;89.29
56894;BME280;43392;50.078;13.704;2023-04-20T00:59:19;97089.75;;;1.86;89.41
56894;BME280;43392;50.078;13.704;2023-04-20T01:01:45;97102.56;;;1.83;89.46
56894;BME280;43392;50.078;13.704;2023-04-20T01:04:12;97100.75;;;1.83;89.56
56894;BME280;43392;50.078;13.704;2023-04-20T01:06:38;97092.00;;;1.83;89.69
56894;BME280;43392;50.078;13.704;2023-04-20T01:09:05;97097.44;;;1.88;89.90
56894;BME280;43392;50.078;13.704;2023-04-20T01:11:32;97094.38;;;1.91;89.84
56894;BME280;43392;50.078;13.704;2023-04-20T01:13:59;97095.78;;;1.93;89.83
56894;BME280;43392;50.078;13.704;2023-04-20T01:16:27;97090.47;;;1.93;89.80
56894;BME280;43392;50.078;13.704;2023-04-20T01:18:54;97080.09;;;1.92;89.77
56894;BME280;43392;50.078;13.704;2023-04-20T01:21:21;97084.38;;;1.93;89.77
56894;BME280;43392;50.078;13.704;2023-04-20T01:23:49;97081.94;;;1.91;89.81
56894;BME280;43392;50.078;13.704;2023-04-20T01:26:17;97085.03;;;1.88;89.58
56894;BME280;43392;50.078;13.704;2023-04-20T01:28:45;97083.41;;;1.87;90.03
56894;BME280;43392;50.078;13.704;2023-04-20T01:31:12;97090.53;;;1.87;89.86
56894;BME280;43392;50.078;13.704;2023-04-20T01:33:39;97078.53;;;1.84;89.89
56894;BME280;43392;50.078;13.704;2023-04-20T01:36:07;97077.38;;;1.80;90.05
56894;BME280;43392;50.078;13.704;2023-04-20T01:38:35;97075.53;;;1.81;90.14
56894;BME280;43392;50.078;13.704;2023-04-20T01:41:05;97079.63;;;1.77;89.87
56894;BME280;43392;50.078;13.704;2023-04-20T01:43:33;97077.47;;;1.67;89.40
56894;BME280;43392;50.078;13.704;2023-04-20T01:46:00;97080.59;;;1.58;89.75
56894;BME280;43392;50.078;13.704;2023-04-20T01:48:27;97071.50;;;1.54;90.45
56894;BME280;43392;50.078;13.704;2023-04-20T01:50:54;97067.88;;;1.48;90.21
56894;BME280;43392;50.078;13.704;2023-04-20T01:53:20;97075.63;;;1.43;90.75
56894;BME280;43392;50.078;13.704;2023-04-20T01:55:48;97072.03;;;1.38;90.65
56894;BME280;43392;50.078;13.704;2023-04-20T01:58:16;97068.81;;;1.36;90.02
56894;BME280;43392;50.078;13.704;2023-04-20T02:00:43;97066.59;;;1.32;89.82
56894;BME280;43392;50.078;13.704;2023-04-20T02:03:09;97063.34;;;1.30;90.21
56894;BME280;43392;50.078;13.704;2023-04-20T02:05:36;97063.19;;;1.25;90.54
56894;BME280;43392;50.078;13.704;2023-04-20T02:08:03;97059.72;;;1.25;90.74
56894;BME280;43392;50.078;13.704;2023-04-20T02:10:30;97057.69;;;1.27;90.81
56894;BME280;43392;50.078;13.704;2023-04-20T02:12:56;97065.59;;;1.27;90.76
56894;BME280;43392;50.078;13.704;2023-04-20T02:15:24;97068.47;;;1.25;90.67
56894;BME280;43392;50.078;13.704;2023-04-20T02:17:51;97069.53;;;1.18;90.80
56894;BME280;43392;50.078;13.704;2023-04-20T02:20:18;97069.94;;;1.15;91.31
56894;BME280;43392;50.078;13.704;2023-04-20T02:22:45;97070.78;;;1.15;91.41
56894;BME280;43392;50.078;13.704;2023-04-20T02:25:11;97073.41;;;1.15;91.59
56894;BME280;43392;50.078;13.704;2023-04-20T02:27:38;97076.88;;;1.09;91.50
56894;BME280;43392;50.078;13.704;2023-04-20T02:30:05;97081.63;;;1.01;92.34
56894;BME280;43392;50.078;13.704;2023-04-20T02:32:33;97072.34;;;0.92;92.63
56894;BME280;43392;50.078;13.704;2023-04-20T02:35:00;97076.84;;;0.85;93.38
56894;BME280;43392;50.078;13.704;2023-04-20T02:37:28;97070.75;;;0.84;93.83
56894;BME280;43392;50.078;13.704;2023-04-20T02:39:55;97066.66;;;0.88;94.06
56894;BME280;43392;50.078;13.704;2023-04-20T02:42:22;97065.22;;;0.92;93.91
56894;BME280;43392;50.078;13.704;2023-04-20T02:44:48;97062.16;;;0.95;93.29
56894;BME280;43392;50.078;13.704;2023-04-20T02:47:16;97053.00;;;0.98;93.06
56894;BME280;43392;50.078;13.704;2023-04-20T02:49:44;97058.28;;;0.98;93.12
56894;BME280;43392;50.078;13.704;2023-04-20T02:52:11;97053.22;;;0.96;93.08
56894;BME280;43392;50.078;13.704;2023-04-20T02:54:38;97052.19;;;0.97;92.56
56894;BME280;43392;50.078;13.704;2023-04-20T02:57:05;97053.00;;;0.98;92.70
56894;BME280;43392;50.078;13.704;2023-04-20T02:59:31;97050.59;;;0.96;92.20
56894;BME280;43392;50.078;13.704;2023-04-20T03:01:58;97046.31;;;0.95;92.14
56894;BME280;43392;50.078;13.704;2023-04-20T03:04:25;97037.81;;;0.93;91.81
56894;BME280;43392;50.078;13.704;2023-04-20T03:06:53;97039.84;;;0.91;92.26
56894;BME280;43392;50.078;13.704;2023-04-20T03:09:20;97043.50;;;0.90;91.95
56894;BME280;43392;50.078;13.704;2023-04-20T03:11:46;97049.00;;;0.89;91.75
56894;BME280;43392;50.078;13.704;2023-04-20T03:14:13;97040.09;;;0.83;91.87
56894;BME280;43392;50.078;13.704;2023-04-20T03:16:40;97041.69;;;0.91;92.24
56894;BME280;43392;50.078;13.704;2023-04-20T03:19:07;97042.50;;;0.91;92.06
56894;BME280;43392;50.078;13.704;2023-04-20T03:21:33;97039.69;;;0.86;91.97
56894;BME280;43392;50.078;13.704;2023-04-20T03:24:02;97041.50;;;0.86;91.33
56894;BME280;43392;50.078;13.704;2023-04-20T03:26:29;97038.69;;;0.81;91.62
56894;BME280;43392;50.078;13.704;2023-04-20T03:28:55;97043.16;;;0.80;91.66
56894;BME280;43392;50.078;13.704;2023-04-20T03:31:22;97040.50;;;0.80;91.40
56894;BME280;43392;50.078;13.704;2023-04-20T03:33:49;97042.78;;;0.77;91.24
56894;BME280;43392;50.078;13.704;2023-04-20T03:36:16;97032.84;;;0.72;90.53
56894;BME280;43392;50.078;13.704;2023-04-20T03:38:42;97029.88;;;0.62;90.71
56894;BME280;43392;50.078;13.704;2023-04-20T03:41:10;97043.47;;;0.59;90.49
56894;BME280;43392;50.078;13.704;2023-04-20T03:43:37;97032.53;;;0.55;90.72
56894;BME280;43392;50.078;13.704;2023-04-20T03:46:03;97040.88;;;0.52;90.92
56894;BME280;43392;50.078;13.704;2023-04-20T03:48:31;97036.22;;;0.48;91.07
56894;BME280;43392;50.078;13.704;2023-04-20T03:50:58;97032.38;;;0.44;91.24
56894;BME280;43392;50.078;13.704;2023-04-20T03:53:24;97042.13;;;0.43;91.05
56894;BME280;43392;50.078;13.704;2023-04-20T03:55:53;97050.25;;;0.42;91.05
56894;BME280;43392;50.078;13.704;2023-04-20T03:58:21;97057.16;;;0.43;91.12
56894;BME280;43392;50.078;13.704;2023-04-20T04:00:48;97053.06;;;0.47;90.94
56894;BME280;43392;50.078;13.704;2023-04-20T04:03:14;97051.03;;;0.49;91.20
56894;BME280;43392;50.078;13.704;2023-04-20T04:05:41;97048.19;;;0.50;90.41
56894;BME280;43392;50.078;13.704;2023-04-20T04:08:07;97056.28;;;0.49;90.04
56894;BME280;43392;50.078;13.704;2023-04-20T04:10:34;97055.50;;;0.48;90.40
56894;BME280;43392;50.078;13.704;2023-04-20T04:13:01;97053.66;;;0.49;90.46
56894;BME280;43392;50.078;13.704;2023-04-20T04:15:28;97057.94;;;0.50;90.32
56894;BME280;43392;50.078;13.704;2023-04-20T04:17:56;97059.53;;;0.51;90.50
56894;BME280;43392;50.078;13.704;2023-04-20T04:20:22;97056.88;;;0.57;90.91
56894;BME280;43392;50.078;13.704;2023-04-20T04:22:49;97066.38;;;0.65;90.77
56894;BME280;43392;50.078;13.704;2023-04-20T04:25:16;97069.97;;;0.77;91.08
56894;BME280;43392;50.078;13.704;2023-04-20T04:27:43;97070.94;;;0.89;91.39
56894;BME280;43392;50.078;13.704;2023-04-20T04:30:11;97069.06;;;0.96;90.92
56894;BME280;43392;50.078;13.704;2023-04-20T04:32:39;97065.38;;;0.97;90.31
56894;BME280;43392;50.078;13.704;2023-04-20T04:35:07;97062.97;;;0.96;90.19
56894;BME280;43392;50.078;13.704;2023-04-20T04:37:34;97066.25;;;0.91;90.09
56894;BME280;43392;50.078;13.704;2023-04-20T04:40:01;97067.69;;;0.87;90.14
56894;BME280;43392;50.078;13.704;2023-04-20T04:42:31;97064.84;;;0.89;90.72
56894;BME280;43392;50.078;13.704;2023-04-20T04:44:58;97071.91;;;0.95;91.20
56894;BME280;43392;50.078;13.704;2023-04-20T04:47:26;97072.06;;;1.06;90.77
56894;BME280;43392;50.078;13.704;2023-04-20T04:49:55;97076.06;;;1.15;90.62
56894;BME280;43392;50.078;13.704;2023-04-20T04:52:21;97071.53;;;1.22;89.75
56894;BME280;43392;50.078;13.704;2023-04-20T04:54:48;97071.69;;;1.27;90.12
56894;BME280;43392;50.078;13.704;2023-04-20T04:57:15;97077.97;;;1.33;90.01
56894;BME280;43392;50.078;13.704;2023-04-20T04:59:41;97071.59;;;1.41;89.99
56894;BME280;43392;50.078;13.704;2023-04-20T05:02:08;97076.25;;;1.45;90.02
56894;BME280;43392;50.078;13.704;2023-04-20T05:04:34;97079.50;;;1.47;90.40
56894;BME280;43392;50.078;13.704;2023-04-20T05:07:02;97078.41;;;1.55;90.60
56894;BME280;43392;50.078;13.704;2023-04-20T05:09:29;97086.72;;;1.58;90.75
56894;BME280;43392;50.078;13.704;2023-04-20T05:11:58;97083.88;;;1.60;90.33
56894;BME280;43392;50.078;13.704;2023-04-20T05:14:25;97083.03;;;1.59;90.65
56894;BME280;43392;50.078;13.704;2023-04-20T05:16:51;97085.09;;;1.57;90.87
56894;BME280;43392;50.078;13.704;2023-04-20T05:19:18;97088.53;;;1.58;91.14
56894;BME280;43392;50.078;13.704;2023-04-20T05:21:44;97088.88;;;1.68;91.77
56894;BME280;43392;50.078;13.704;2023-04-20T05:24:12;97088.28;;;1.66;91.26
56894;BME280;43392;50.078;13.704;2023-04-20T05:26:39;97089.28;;;1.65;91.71
56894;BME280;43392;50.078;13.704;2023-04-20T05:29:05;97092.97;;;1.64;91.56
56894;BME280;43392;50.078;13.704;2023-04-20T05:31:32;97095.69;;;1.57;91.97
56894;BME280;43392;50.078;13.704;2023-04-20T05:33:59;97095.06;;;1.55;92.86
56894;BME280;43392;50.078;13.704;2023-04-20T05:36:26;97091.41;;;1.56;92.89
56894;BME280;43392;50.078;13.704;2023-04-20T05:38:53;97088.16;;;1.54;92.88
56894;BME280;43392;50.078;13.704;2023-04-20T05:41:21;97096.69;;;1.56;93.01
56894;BME280;43392;50.078;13.704;2023-04-20T05:43:51;97091.63;;;1.55;93.28
56894;BME280;43392;50.078;13.704;2023-04-20T05:46:18;97090.59;;;1.56;93.60
56894;BME280;43392;50.078;13.704;2023-04-20T05:48:44;97088.09;;;1.61;93.74
56894;BME280;43392;50.078;13.704;2023-04-20T05:51:11;97098.25;;;1.64;93.44
56894;BME280;43392;50.078;13.704;2023-04-20T05:53:38;97092.91;;;1.70;93.50
56894;BME280;43392;50.078;13.704;2023-04-20T05:56:05;97085.13;;;1.75;93.15
56894;BME280;43392;50.078;13.704;2023-04-20T05:58:34;97097.34;;;1.76;93.19
56894;BME280;43392;50.078;13.704;2023-04-20T06:01:02;97093.66;;;1.77;93.16
56894;BME280;43392;50.078;13.704;2023-04-20T06:03:29;97095.88;;;1.80;92.82
56894;BME280;43392;50.078;13.704;2023-04-20T06:05:56;97088.81;;;1.74;93.25
56894;BME280;43392;50.078;13.704;2023-04-20T06:08:22;97086.97;;;1.75;93.43
56894;BME280;43392;50.078;13.704;2023-04-20T06:10:52;97093.47;;;1.79;93.22
56894;BME280;43392;50.078;13.704;2023-04-20T06:13:19;97091.56;;;1.86;93.32
56894;BME280;43392;50.078;13.704;2023-04-20T06:15:47;97097.59;;;1.93;92.76
56894;BME280;43392;50.078;13.704;2023-04-20T06:18:13;97092.66;;;1.96;92.54
56894;BME280;43392;50.078;13.704;2023-04-20T06:20:42;97096.28;;;2.02;92.73
56894;BME280;43392;50.078;13.704;2023-04-20T06:23:09;97097.47;;;2.06;92.59
56894;BME280;43392;50.078;13.704;2023-04-20T06:25:36;97116.59;;;2.08;92.64
56894;BME280;43392;50.078;13.704;2023-04-20T06:28:02;97113.28;;;2.13;92.72
56894;BME280;43392;50.078;13.704;2023-04-20T06:30:29;97115.69;;;2.14;92.61
56894;BME280;43392;50.078;13.704;2023-04-20T06:32:59;97114.69;;;2.15;92.59
56894;BME280;43392;50.078;13.704;2023-04-20T06:35:25;97111.22;;;2.15;92.97
56894;BME280;43392;50.078;13.704;2023-04-20T06:37:52;97114.47;;;2.17;93.26
56894;BME280;43392;50.078;13.704;2023-04-20T06:40:21;97113.94;;;2.26;92.62
56894;BME280;43392;50.078;13.704;2023-04-20T06:42:48;97108.53;;;2.39;92.72
56894;BME280;43392;50.078;13.704;2023-04-20T06:45:14;97110.16;;;2.58;91.78
56894;BME280;43392;50.078;13.704;2023-04-20T06:47:42;97111.22;;;2.69;90.97
56894;BME280;43392;50.078;13.704;2023-04-20T06:50:10;97113.97;;;2.81;90.66
56894;BME280;43392;50.078;13.704;2023-04-20T06:52:38;97111.13;;;2.94;90.84
56894;BME280;43392;50.078;13.704;2023-04-20T06:55:05;97109.34;;;3.06;90.58
56894;BME280;43392;50.078;13.704;2023-04-20T06:57:32;97110.53;;;3.10;90.14
56894;BME280;43392;50.078;13.704;2023-04-20T06:59:58;97122.56;;;3.24;89.99
56894;BME280;43392;50.078;13.704;2023-04-20T07:02:26;97115.03;;;3.39;88.96
56894;BME280;43392;50.078;13.704;2023-04-20T07:04:52;97111.59;;;3.50;88.31
56894;BME280;43392;50.078;13.704;2023-04-20T07:07:20;97098.91;;;3.52;87.61
56894;BME280;43392;50.078;13.704;2023-04-20T07:09:47;97109.25;;;3.54;87.41
56894;BME280;43392;50.078;13.704;2023-04-20T07:12:13;97108.56;;;3.47;88.21
56894;BME280;43392;50.078;13.704;2023-04-20T07:14:40;97113.22;;;3.51;87.94
56894;BME280;43392;50.078;13.704;2023-04-20T07:17:07;97103.97;;;3.54;87.85
56894;BME280;43392;50.078;13.704;2023-04-20T07:19:34;97111.72;;;3.55;87.50
56894;BME280;43392;50.078;13.704;2023-04-20T07:22:00;97112.25;;;3.46;88.55
56894;BME280;43392;50.078;13.704;2023-04-20T07:24:28;97110.56;;;3.51;88.75
56894;BME280;43392;50.078;13.704;2023-04-20T07:26:55;97119.22;;;3.58;88.42
56894;BME280;43392;50.078;13.704;2023-04-20T07:29:22;97122.28;;;3.44;88.68
56894;BME280;43392;50.078;13.704;2023-04-20T07:31:49;97117.69;;;3.51;88.72
56894;BME280;43392;50.078;13.704;2023-04-20T07:34:15;97123.25;;;3.61;88.38
56894;BME280;43392;50.078;13.704;2023-04-20T07:36:42;97128.13;;;3.75;88.33
56894;BME280;43392;50.078;13.704;2023-04-20T07:39:08;97123.41;;;3.77;88.51
56894;BME280;43392;50.078;13.704;2023-04-20T07:41:36;97135.88;;;3.88;88.41
56894;BME280;43392;50.078;13.704;2023-04-20T07:44:03;97139.34;;;4.00;87.85
56894;BME280;43392;50.078;13.704;2023-04-20T07:46:30;97135.53;;;4.08;87.53
56894;BME280;43392;50.078;13.704;2023-04-20T07:48:56;97136.00;;;4.17;87.20
56894;BME280;43392;50.078;13.704;2023-04-20T07:51:23;97135.22;;;4.28;87.15
56894;BME280;43392;50.078;13.704;2023-04-20T07:53:51;97120.06;;;4.40;86.63
56894;BME280;43392;50.078;13.704;2023-04-20T07:56:17;97123.06;;;4.55;86.51
56894;BME280;43392;50.078;13.704;2023-04-20T07:58:45;97128.25;;;4.61;86.29
56894;BME280;43392;50.078;13.704;2023-04-20T08:01:12;97128.38;;;4.55;87.32
56894;BME280;43392;50.078;13.704;2023-04-20T08:03:38;97131.50;;;4.52;87.01
56894;BME280;43392;50.078;13.704;2023-04-20T08:06:06;97143.53;;;4.43;86.75
56894;BME280;43392;50.078;13.704;2023-04-20T08:08:32;97146.50;;;4.35;87.87
56894;BME280;43392;50.078;13.704;2023-04-20T08:10:59;97134.50;;;4.21;87.33
56894;BME280;43392;50.078;13.704;2023-04-20T08:13:25;97140.03;;;4.08;88.38
56894;BME280;43392;50.078;13.704;2023-04-20T08:15:54;97134.16;;;3.94;89.78
56894;BME280;43392;50.078;13.704;2023-04-20T08:18:20;97125.94;;;3.95;90.42
56894;BME280;43392;50.078;13.704;2023-04-20T08:20:47;97116.03;;;4.02;90.66
56894;BME280;43392;50.078;13.704;2023-04-20T08:23:15;97122.50;;;4.18;90.31
56894;BME280;43392;50.078;13.704;2023-04-20T08:25:41;97114.66;;;4.35;90.13
56894;BME280;43392;50.078;13.704;2023-04-20T08:28:08;97106.78;;;4.51;89.96
56894;BME280;43392;50.078;13.704;2023-04-20T08:30:35;97107.56;;;4.63;89.13
56894;BME280;43392;50.078;13.704;2023-04-20T08:33:03;97113.09;;;4.74;89.12
56894;BME280;43392;50.078;13.704;2023-04-20T08:35:29;97101.91;;;4.72;87.88
56894;BME280;43392;50.078;13.704;2023-04-20T08:37:56;97101.31;;;4.81;88.23
56894;BME280;43392;50.078;13.704;2023-04-20T08:40:22;97110.03;;;4.93;87.66
56894;BME280;43392;50.078;13.704;2023-04-20T08:42:49;97106.44;;;4.99;86.43
56894;BME280;43392;50.078;13.704;2023-04-20T08:45:16;97105.50;;;5.05;86.26
56894;BME280;43392;50.078;13.704;2023-04-20T08:47:43;97097.16;;;5.13;85.73
56894;BME280;43392;50.078;13.704;2023-04-20T08:50:12;97098.28;;;5.17;85.50
56894;BME280;43392;50.078;13.704;2023-04-20T08:52:39;97105.19;;;5.18;85.74
56894;BME280;43392;50.078;13.704;2023-04-20T08:55:06;97104.72;;;5.21;84.82
56894;BME280;43392;50.078;13.704;2023-04-20T08:57:33;97095.25;;;5.25;84.49
56894;BME280;43392;50.078;13.704;2023-04-20T09:00:03;97087.84;;;5.27;84.39
56894;BME280;43392;50.078;13.704;2023-04-20T09:02:32;97094.31;;;5.48;84.69
56894;BME280;43392;50.078;13.704;2023-04-20T09:05:02;97097.81;;;5.65;83.14
56894;BME280;43392;50.078;13.704;2023-04-20T09:07:30;97092.25;;;5.67;82.14
56894;BME280;43392;50.078;13.704;2023-04-20T09:09:58;97087.16;;;5.65;81.51
56894;BME280;43392;50.078;13.704;2023-04-20T09:12:26;97088.44;;;5.63;82.67
56894;BME280;43392;50.078;13.704;2023-04-20T09:14:53;97086.13;;;5.50;81.02
56894;BME280;43392;50.078;13.704;2023-04-20T09:17:30;97094.78;;;5.45;81.41
56894;BME280;43392;50.078;13.704;2023-04-20T09:19:57;97093.81;;;5.34;82.58
56894;BME280;43392;50.078;13.704;2023-04-20T09:22:32;97095.81;;;5.27;82.33
56894;BME280;43392;50.078;13.704;2023-04-20T09:25:00;97089.69;;;5.27;82.75
56894;BME280;43392;50.078;13.704;2023-04-20T09:27:26;97100.16;;;5.33;82.51
56894;BME280;43392;50.078;13.704;2023-04-20T09:29:56;97092.75;;;5.35;82.91
56894;BME280;43392;50.078;13.704;2023-04-20T09:32:24;97099.13;;;5.34;82.03
56894;BME280;43392;50.078;13.704;2023-04-20T09:34:52;97099.22;;;5.40;82.80
56894;BME280;43392;50.078;13.704;2023-04-20T09:37:19;97091.59;;;5.60;82.47
56894;BME280;43392;50.078;13.704;2023-04-20T09:39:48;97091.00;;;5.86;81.72
56894;BME280;43392;50.078;13.704;2023-04-20T09:42:16;97082.59;;;6.11;81.74
56894;BME280;43392;50.078;13.704;2023-04-20T09:44:43;97076.25;;;6.33;79.87
56894;BME280;43392;50.078;13.704;2023-04-20T09:47:16;97082.69;;;6.54;78.93
56894;BME280;43392;50.078;13.704;2023-04-20T09:49:43;97084.63;;;6.58;78.22
56894;BME280;43392;50.078;13.704;2023-04-20T09:52:10;97083.00;;;6.57;77.78
56894;BME280;43392;50.078;13.704;2023-04-20T09:54:38;97079.50;;;6.57;78.38
56894;BME280;43392;50.078;13.704;2023-04-20T09:57:06;97076.56;;;6.53;78.14
56894;BME280;43392;50.078;13.704;2023-04-20T09:59:35;97073.63;;;6.55;78.97
56894;BME280;43392;50.078;13.704;2023-04-20T10:02:06;97073.16;;;6.58;78.39
56894;BME280;43392;50.078;13.704;2023-04-20T10:04:34;97069.03;;;6.50;78.87
56894;BME280;43392;50.078;13.704;2023-04-20T10:07:00;97064.13;;;6.42;78.47
56894;BME280;43392;50.078;13.704;2023-04-20T10:09:31;97067.53;;;6.38;78.54
56894;BME280;43392;50.078;13.704;2023-04-20T10:12:05;97070.00;;;6.44;79.12
56894;BME280;43392;50.078;13.704;2023-04-20T10:14:33;97064.59;;;6.56;79.38
56894;BME280;43392;50.078;13.704;2023-04-20T10:17:02;97062.84;;;6.66;78.92
56894;BME280;43392;50.078;13.704;2023-04-20T10:19:36;97056.72;;;6.88;91.46
56894;BME280;43392;50.078;13.704;2023-04-20T10:22:04;97050.06;;;8.07;88.84
56894;BME280;43392;50.078;13.704;2023-04-20T10:24:31;97036.69;;;8.44;78.75
56894;BME280;43392;50.078;13.704;2023-04-20T10:26:58;97043.47;;;8.20;74.01
56894;BME280;43392;50.078;13.704;2023-04-20T10:29:25;97050.00;;;7.97;75.55
56894;BME280;43392;50.078;13.704;2023-04-20T10:31:54;97045.75;;;7.64;74.17
56894;BME280;43392;50.078;13.704;2023-04-20T10:34:29;97041.78;;;7.40;76.89
56894;BME280;43392;50.078;13.704;2023-04-20T10:37:06;97040.06;;;7.24;75.20
56894;BME280;43392;50.078;13.704;2023-04-20T10:39:33;97046.47;;;7.28;76.62
56894;BME280;43392;50.078;13.704;2023-04-20T10:42:02;97044.56;;;7.23;77.73
56894;BME280;43392;50.078;13.704;2023-04-20T10:44:28;97053.28;;;7.14;76.86
56894;BME280;43392;50.078;13.704;2023-04-20T10:46:58;97038.81;;;7.10;77.22
56894;BME280;43392;50.078;13.704;2023-04-20T10:49:26;97036.34;;;7.03;77.47
56894;BME280;43392;50.078;13.704;2023-04-20T10:51:54;97028.97;;;7.10;77.79
56894;BME280;43392;50.078;13.704;2023-04-20T10:54:20;97023.13;;;7.40;79.33
56894;BME280;43392;50.078;13.704;2023-04-20T10:56:48;97017.75;;;8.03;77.27
56894;BME280;43392;50.078;13.704;2023-04-20T10:59:16;97025.81;;;8.14;74.77
56894;BME280;43392;50.078;13.704;2023-04-20T11:01:44;97029.09;;;7.84;74.71
56894;BME280;43392;50.078;13.704;2023-04-20T11:04:13;97025.75;;;8.03;76.84
56894;BME280;43392;50.078;13.704;2023-04-20T11:06:42;97032.13;;;8.39;75.76
56894;BME280;43392;50.078;13.704;2023-04-20T11:09:18;97023.84;;;8.41;74.80
56894;BME280;43392;50.078;13.704;2023-04-20T11:11:47;97015.38;;;8.12;74.34
56894;BME280;43392;50.078;13.704;2023-04-20T11:14:23;97031.88;;;7.99;75.51
56894;BME280;43392;50.078;13.704;2023-04-20T11:16:50;97032.22;;;7.76;76.09
56894;BME280;43392;50.078;13.704;2023-04-20T11:19:26;97038.56;;;7.65;76.39
56894;BME280;43392;50.078;13.704;2023-04-20T11:21:53;97033.66;;;7.57;76.20
56894;BME280;43392;50.078;13.704;2023-04-20T11:24:21;97038.88;;;7.42;77.30
56894;BME280;43392;50.078;13.704;2023-04-20T11:26:49;97040.13;;;7.34;78.05
56894;BME280;43392;50.078;13.704;2023-04-20T11:29:28;97044.09;;;7.31;78.48
56894;BME280;43392;50.078;13.704;2023-04-20T11:31:57;97040.69;;;7.36;78.55
56894;BME280;43392;50.078;13.704;2023-04-20T11:34:25;97036.97;;;7.37;78.16
56894;BME280;43392;50.078;13.704;2023-04-20T11:36:52;97034.59;;;7.41;78.45
56894;BME280;43392;50.078;13.704;2023-04-20T11:39:23;97034.28;;;7.37;78.66
56894;BME280;43392;50.078;13.704;2023-04-20T11:41:50;97042.50;;;7.30;78.66
56894;BME280;43392;50.078;13.704;2023-04-20T11:44:17;97042.47;;;7.25;79.44
56894;BME280;43392;50.078;13.704;2023-04-20T11:46:45;97043.81;;;7.28;80.02
56894;BME280;43392;50.078;13.704;2023-04-20T11:49:13;97042.19;;;7.27;80.51
56894;BME280;43392;50.078;13.704;2023-04-20T11:51:41;97035.25;;;7.26;80.59
56894;BME280;43392;50.078;13.704;2023-04-20T11:54:08;97039.28;;;7.28;80.87
56894;BME280;43392;50.078;13.704;2023-04-20T11:56:35;97028.34;;;7.30;80.98
56894;BME280;43392;50.078;13.704;2023-04-20T11:59:02;97033.97;;;7.28;81.06
56894;BME280;43392;50.078;13.704;2023-04-20T12:01:29;97027.25;;;7.26;81.28
56894;BME280;43392;50.078;13.704;2023-04-20T12:03:55;97030.97;;;7.25;81.32
56894;BME280;43392;50.078;13.704;2023-04-20T12:06:22;97032.06;;;7.24;81.55
56894;BME280;43392;50.078;13.704;2023-04-20T12:08:50;97027.59;;;7.34;80.95
56894;BME280;43392;50.078;13.704;2023-04-20T12:11:16;97024.22;;;7.44;81.01
56894;BME280;43392;50.078;13.704;2023-04-20T12:13:43;97023.22;;;7.50;80.61
56894;BME280;43392;50.078;13.704;2023-04-20T12:16:09;97015.84;;;7.62;81.13
56894;BME280;43392;50.078;13.704;2023-04-20T12:18:37;97020.22;;;7.78;80.54
56894;BME280;43392;50.078;13.704;2023-04-20T12:21:03;97017.38;;;7.90;80.40
56894;BME280;43392;50.078;13.704;2023-04-20T12:23:30;97014.53;;;8.01;79.30
56894;BME280;43392;50.078;13.704;2023-04-20T12:25:59;97007.63;;;8.11;79.16
56894;BME280;43392;50.078;13.704;2023-04-20T12:28:25;97010.09;;;8.22;78.37
56894;BME280;43392;50.078;13.704;2023-04-20T12:30:52;96999.69;;;8.21;78.23
56894;BME280;43392;50.078;13.704;2023-04-20T12:33:18;97004.47;;;8.14;78.62
56894;BME280;43392;50.078;13.704;2023-04-20T12:35:45;97011.88;;;8.07;78.98
56894;BME280;43392;50.078;13.704;2023-04-20T12:38:11;97008.66;;;8.04;79.38
56894;BME280;43392;50.078;13.704;2023-04-20T12:40:38;97005.13;;;7.94;79.89
56894;BME280;43392;50.078;13.704;2023-04-20T12:43:06;97006.69;;;7.90;80.20
56894;BME280;43392;50.078;13.704;2023-04-20T12:45:33;97006.97;;;7.88;80.63
56894;BME280;43392;50.078;13.704;2023-04-20T12:47:59;97013.66;;;7.91;81.14
56894;BME280;43392;50.078;13.704;2023-04-20T12:50:26;96998.47;;;7.96;81.27
56894;BME280;43392;50.078;13.704;2023-04-20T12:52:53;96998.75;;;8.00;80.53
56894;BME280;43392;50.078;13.704;2023-04-20T12:55:20;96998.78;;;8.05;80.37
56894;BME280;43392;50.078;13.704;2023-04-20T12:57:47;96996.97;;;8.11;80.55
56894;BME280;43392;50.078;13.704;2023-04-20T13:00:16;97006.09;;;8.20;80.51